Mullinville, Kansas
Current Conditions -  °F | °C
As of 1:52 AM on Monday 22 Dec 2014 (Local Time) from KDDC Reporting Station
Haze Haze  
Wind Chill:   Ceiling: 500
Heat Index:   Visibility: 5mi
Dew Point:   Wind: 9mph
Humidity: 89%   Direction: 230°SW
Pressure: 29.54"   Gusts: NA
Location:  37.59°N, 99.48°W
Report Text: KDDC 220752Z AUTO 23008KT 5SM BR OVC005 06/04 A2954 RMK AO2 SLP005 T00560039
Loading
Personal Weather Stations






























Interactive Weather Map New forecast layout! Learn more

10-Day Weather Forecast

Advertisements
Track Severe Weather on mobile